createdAt,value
2019-02-18T00:00:59.102Z,101441.97
2019-02-18T00:04:03.689Z,101447.34
2019-02-18T00:07:41.218Z,101449.78
2019-02-18T00:10:26.728Z,101447.84
2019-02-18T00:13:14.477Z,101446.22
2019-02-18T00:15:52.565Z,101442.67
2019-02-18T00:18:58.146Z,101440.13
2019-02-18T00:21:45.864Z,101441.52
2019-02-18T00:28:44.956Z,101435.70
2019-02-18T00:31:19.472Z,101436.79
2019-02-18T00:34:03.253Z,101447.61
2019-02-18T00:37:05.982Z,101444.98
2019-02-18T00:40:38.939Z,101442.75
2019-02-18T00:43:20.370Z,101442.59
2019-02-18T00:46:04.856Z,101438.80
2019-02-18T00:48:47.573Z,101445.41
2019-02-18T00:51:58.611Z,101447.39
2019-02-18T00:54:26.677Z,101436.97
2019-02-18T00:57:02.235Z,101439.03
2019-02-18T01:00:16.557Z,101440.16
2019-02-18T01:03:06.881Z,101435.36
2019-02-18T01:06:15.186Z,101440.84
2019-02-18T01:12:14.794Z,101442.69
2019-02-18T01:15:00.437Z,101440.84
2019-02-18T01:18:06.947Z,101443.41
2019-02-18T01:20:57.439Z,101445.92
2019-02-18T01:24:13.214Z,101444.27
2019-02-18T01:26:47.742Z,101443.67
2019-02-18T01:29:30.016Z,101444.23
2019-02-18T01:35:41.690Z,101440.93
2019-02-18T01:38:46.339Z,101441.72
2019-02-18T01:41:41.841Z,101444.09
2019-02-18T01:44:37.471Z,101438.02
2019-02-18T01:48:02.172Z,101444.94
2019-02-18T01:50:35.229Z,101435.80
2019-02-18T01:53:18.137Z,101446.60
2019-02-18T01:56:09.255Z,101444.38
2019-02-18T01:59:08.313Z,101444.16
2019-02-18T02:01:56.734Z,101430.41
2019-02-18T02:04:36.799Z,101426.83
2019-02-18T02:07:34.000Z,101437.19
2019-02-18T02:10:39.497Z,101436.27
2019-02-18T02:13:51.685Z,101437.32
2019-02-18T02:17:05.035Z,101438.06
2019-02-18T02:19:44.840Z,101431.00
2019-02-18T02:22:40.048Z,101433.31
2019-02-18T02:25:59.129Z,101433.56
2019-02-18T02:28:28.762Z,101435.63
2019-02-18T02:31:48.583Z,101434.88
2019-02-18T02:34:44.557Z,101434.88
2019-02-18T02:38:25.999Z,101426.45
2019-02-18T02:41:12.941Z,101428.42
2019-02-18T02:44:48.822Z,101429.94
2019-02-18T02:47:25.972Z,101419.16
2019-02-18T02:50:57.960Z,101420.44
2019-02-18T02:56:55.394Z,101406.96
2019-02-18T02:59:53.913Z,101410.73
2019-02-18T03:02:37.418Z,101409.00
2019-02-18T03:05:12.412Z,101404.88
2019-02-18T03:07:54.834Z,101401.03
2019-02-18T03:10:43.745Z,101399.13
2019-02-18T03:13:17.661Z,101408.14
2019-02-18T03:15:51.147Z,101404.31
2019-02-18T03:18:44.911Z,101405.20
2019-02-18T03:21:26.460Z,101403.59
2019-02-18T03:24:12.019Z,101398.96
2019-02-18T03:26:53.823Z,101399.31
2019-02-18T03:30:07.756Z,101395.45
2019-02-18T03:33:31.962Z,101396.22
2019-02-18T03:36:49.404Z,101400.23
2019-02-18T03:39:44.683Z,101404.06
2019-02-18T03:49:12.755Z,101406.56
2019-02-18T03:52:09.377Z,101411.41
2019-02-18T03:55:03.550Z,101412.67
2019-02-18T03:58:22.717Z,101415.88
2019-02-18T04:01:38.801Z,101413.35
2019-02-18T04:04:45.933Z,101409.83
2019-02-18T04:11:08.590Z,101404.93
2019-02-18T04:14:17.935Z,101404.54
2019-02-18T04:20:34.666Z,101407.83
2019-02-18T04:23:35.142Z,101414.42
2019-02-18T04:27:00.266Z,101415.02
2019-02-18T04:29:02.892Z,101414.97
2019-02-18T04:32:04.314Z,101413.77
2019-02-18T04:39:14.498Z,101406.09
2019-02-18T04:42:23.572Z,101410.77
2019-02-18T04:45:25.165Z,101409.03
2019-02-18T04:51:04.523Z,101410.58
2019-02-18T04:54:18.979Z,101405.12
2019-02-18T04:57:31.942Z,101408.92
2019-02-18T05:00:36.460Z,101398.29
2019-02-18T05:03:26.671Z,101404.17
2019-02-18T05:10:06.177Z,101399.81
2019-02-18T05:13:23.942Z,101396.76
2019-02-18T05:19:26.125Z,101399.23
2019-02-18T05:22:33.930Z,101392.87
2019-02-18T05:25:56.307Z,101399.95
2019-02-18T05:29:02.327Z,101403.19
2019-02-18T05:34:58.699Z,101390.72
2019-02-18T05:37:49.854Z,101391.89
2019-02-18T05:40:59.704Z,101386.02
2019-02-18T05:50:31.306Z,101381.06
2019-02-18T05:53:21.597Z,101377.66
2019-02-18T05:59:35.759Z,101371.73
2019-02-18T06:02:17.647Z,101376.20
2019-02-18T06:05:25.631Z,101370.22
2019-02-18T06:08:26.398Z,101373.08
2019-02-18T06:11:55.856Z,101367.44
2019-02-18T06:14:47.606Z,101366.42
2019-02-18T06:17:33.964Z,101358.66
2019-02-18T06:23:53.333Z,101363.16
2019-02-18T06:26:39.876Z,101365.22
2019-02-18T06:29:33.387Z,101366.14
2019-02-18T06:32:48.324Z,101370.33
2019-02-18T06:35:46.237Z,101365.75
2019-02-18T06:38:29.458Z,101368.05
2019-02-18T06:41:15.381Z,101368.58
2019-02-18T06:43:56.649Z,101361.86
2019-02-18T06:53:51.950Z,101368.41
2019-02-18T06:57:26.485Z,101370.16
2019-02-18T07:00:32.801Z,101366.94
2019-02-18T07:03:31.934Z,101363.13
2019-02-18T07:06:31.085Z,101356.64
2019-02-18T07:09:39.180Z,101354.36
2019-02-18T07:13:40.122Z,101360.91
2019-02-18T07:17:03.830Z,101366.97
2019-02-18T07:20:07.416Z,101366.77
2019-02-18T07:26:02.451Z,101362.70
2019-02-18T07:29:06.321Z,101355.41
2019-02-18T07:35:45.158Z,101358.30
2019-02-18T07:38:52.275Z,101361.05
2019-02-18T07:41:44.525Z,101353.94
2019-02-18T07:44:24.284Z,101352.28
2019-02-18T07:47:59.196Z,101354.37
2019-02-18T07:50:56.946Z,101359.15
2019-02-18T07:53:48.480Z,101354.21
2019-02-18T07:57:14.271Z,101352.44
2019-02-18T08:03:41.694Z,101356.39
2019-02-18T08:09:37.915Z,101354.81
2019-02-18T08:12:31.438Z,101354.82
2019-02-18T08:15:53.601Z,101352.19
2019-02-18T08:19:21.199Z,101356.16
2019-02-18T08:22:52.747Z,101349.48
2019-02-18T08:26:14.900Z,101338.13
2019-02-18T08:29:45.100Z,101327.98
2019-02-18T08:38:58.476Z,101331.97
2019-02-18T08:46:18.193Z,101330.05
2019-02-18T08:56:39.085Z,101325.66
2019-02-18T09:11:44.139Z,101307.44
2019-02-18T09:19:08.604Z,101311.64
2019-02-18T09:30:08.561Z,101300.63
2019-02-18T09:37:00.423Z,101301.91
2019-02-18T09:43:13.891Z,101304.14
2019-02-18T09:46:45.797Z,101296.19
2019-02-18T09:49:20.944Z,101300.89
2019-02-18T09:52:41.199Z,101305.63
2019-02-18T09:55:55.323Z,101303.23
2019-02-18T09:58:36.661Z,101301.65
2019-02-18T10:01:35.521Z,101298.69
2019-02-18T10:04:16.161Z,101297.83
2019-02-18T10:07:23.645Z,101287.44
2019-02-18T10:09:58.393Z,101289.69
2019-02-18T10:12:33.253Z,101283.92
2019-02-18T10:20:10.477Z,101280.16
2019-02-18T10:23:04.223Z,101274.32
2019-02-18T10:25:37.773Z,101268.63
2019-02-18T10:28:33.949Z,101276.89
2019-02-18T10:35:17.500Z,101267.14
2019-02-18T10:39:08.348Z,101254.31
2019-02-18T10:41:06.937Z,101251.16
2019-02-18T10:43:32.706Z,101241.34
2019-02-18T10:46:00.432Z,101242.17
2019-02-18T10:52:36.001Z,101237.63
2019-02-18T10:55:42.157Z,101232.77
2019-02-18T11:01:45.842Z,101230.41
2019-02-18T11:04:24.685Z,101232.50
2019-02-18T11:14:01.490Z,101219.83
2019-02-18T11:16:38.510Z,101217.34
2019-02-18T11:19:46.114Z,101218.98
2019-02-18T11:22:43.128Z,101230.80
2019-02-18T11:28:59.951Z,101216.52
2019-02-18T11:31:45.342Z,101210.27
2019-02-18T11:34:13.212Z,101207.50
2019-02-18T11:39:47.197Z,101209.77
2019-02-18T11:42:59.164Z,101200.28
2019-02-18T11:46:10.459Z,101204.33
2019-02-18T11:49:01.246Z,101198.55
2019-02-18T11:52:01.167Z,101188.52
2019-02-18T11:55:27.053Z,101192.20
2019-02-18T11:57:59.999Z,101183.35
2019-02-18T12:00:43.457Z,101193.52
2019-02-18T12:06:38.406Z,101186.15
2019-02-18T12:09:43.470Z,101179.20
2019-02-18T12:12:14.294Z,101181.75
2019-02-18T12:15:41.851Z,101181.48
2019-02-18T12:18:09.851Z,101175.16
2019-02-18T12:21:34.165Z,101177.75
2019-02-18T12:24:48.740Z,101168.90
2019-02-18T12:27:25.615Z,101176.17
2019-02-18T12:33:59.279Z,101174.28
2019-02-18T12:37:23.311Z,101164.04
2019-02-18T12:39:55.294Z,101159.27
2019-02-18T12:42:42.192Z,101160.62
2019-02-18T12:49:02.486Z,101148.98
2019-02-18T12:52:06.916Z,101142.55
2019-02-18T12:54:49.332Z,101132.45
2019-02-18T13:32:35.167Z,101070.16
2019-02-18T13:35:13.940Z,101065.03
2019-02-18T13:39:59.167Z,101061.59
2019-02-18T13:42:07.442Z,101058.80
2019-02-18T13:45:07.488Z,101051.30
2019-02-18T13:48:30.920Z,101054.34
2019-02-18T13:51:27.756Z,101056.91
2019-02-18T13:53:58.891Z,101048.78
2019-02-18T13:57:17.192Z,101047.84
2019-02-18T14:00:49.720Z,101043.56
2019-02-18T14:04:09.268Z,101041.89
2019-02-18T14:07:31.945Z,101035.01
2019-02-18T14:10:01.447Z,101029.19
2019-02-18T14:13:03.590Z,101034.74
2019-02-18T14:16:00.136Z,101036.52
2019-02-18T14:19:01.745Z,101037.71
2019-02-18T14:22:20.955Z,101029.89
2019-02-18T14:24:51.546Z,101036.39
2019-02-18T14:32:00.381Z,101024.94
2019-02-18T14:34:15.805Z,101022.90
2019-02-18T14:39:41.829Z,101021.69
2019-02-18T14:42:30.956Z,101015.02
2019-02-18T14:46:10.154Z,101013.81
2019-02-18T14:49:31.696Z,101009.22
2019-02-18T14:52:37.635Z,101014.34
2019-02-18T14:56:00.013Z,101013.84
2019-02-18T14:59:04.159Z,101018.43
2019-02-18T15:02:13.798Z,101018.82
2019-02-18T15:12:33.144Z,101011.61
2019-02-18T15:15:36.164Z,101008.05
2019-02-18T15:18:43.983Z,101004.44
2019-02-18T15:21:58.737Z,101000.88
2019-02-18T15:31:59.946Z,100995.06
2019-02-18T15:35:04.032Z,100991.13
2019-02-18T15:37:59.237Z,100985.63
2019-02-18T15:42:12.618Z,100988.05
2019-02-18T15:53:11.474Z,100981.22
2019-02-18T15:59:44.290Z,100973.15
2019-02-18T16:03:06.925Z,100974.51
2019-02-18T16:06:24.907Z,100974.52
2019-02-18T16:11:25.329Z,100973.77
2019-02-18T16:14:08.436Z,100971.02
2019-02-18T16:18:13.323Z,100968.59
2019-02-18T16:20:54.770Z,100970.28
2019-02-18T16:24:20.390Z,100965.46
2019-02-18T16:27:02.496Z,100966.30
2019-02-18T16:29:53.361Z,100973.59
2019-02-18T16:33:19.379Z,100975.44
2019-02-18T16:36:27.783Z,100973.14
2019-02-18T16:39:31.389Z,100974.12
2019-02-18T16:52:33.328Z,100978.40
2019-02-18T16:55:54.284Z,100979.77
2019-02-18T16:58:31.631Z,100984.38
2019-02-18T17:10:45.713Z,100989.23
2019-02-18T17:13:34.762Z,100997.19
2019-02-18T17:16:18.727Z,100990.37
2019-02-18T17:19:12.694Z,100986.34
2019-02-18T17:25:32.292Z,100985.87
2019-02-18T17:28:35.804Z,100991.98
2019-02-18T17:31:15.432Z,100995.68
2019-02-18T17:34:16.203Z,100998.12
2019-02-18T17:37:15.449Z,101006.86
2019-02-18T17:39:47.760Z,101001.70
2019-02-18T17:43:04.312Z,101002.65
2019-02-18T17:48:51.508Z,100998.52
2019-02-18T17:54:00.952Z,100988.70
2019-02-18T17:56:52.383Z,100989.41
2019-02-18T17:59:21.700Z,100989.38
2019-02-18T18:01:59.582Z,100986.28
2019-02-18T18:04:29.256Z,100988.67
2019-02-18T18:07:06.003Z,100990.42
2019-02-18T18:09:38.117Z,100992.23
2019-02-18T18:12:31.184Z,100994.66
2019-02-18T18:15:00.548Z,100989.70
2019-02-18T18:17:29.912Z,100989.52
2019-02-18T18:19:59.129Z,101001.58
2019-02-18T18:22:30.541Z,100992.66
2019-02-18T18:25:21.989Z,100995.80
2019-02-18T18:27:51.227Z,100987.38
2019-02-18T18:30:37.476Z,100991.39
2019-02-18T18:33:08.111Z,100999.55
2019-02-18T18:35:40.051Z,100994.56
2019-02-18T18:38:09.339Z,100992.38
2019-02-18T18:40:38.696Z,100989.07
2019-02-18T18:43:11.079Z,100989.44
2019-02-18T18:45:40.429Z,100984.68
2019-02-18T18:48:14.401Z,100976.32
2019-02-18T18:50:46.623Z,100976.48
2019-02-18T18:53:24.554Z,100981.80
2019-02-18T18:55:53.954Z,100984.90
2019-02-18T18:58:23.114Z,100988.83
2019-02-18T19:00:52.558Z,100988.59
2019-02-18T19:03:21.608Z,100990.34
2019-02-18T19:05:50.731Z,100991.95
2019-02-18T19:08:19.683Z,100990.01
2019-02-18T19:10:56.399Z,100988.77
2019-02-18T19:13:25.532Z,100989.26
2019-02-18T19:16:03.278Z,100980.92
2019-02-18T19:18:32.229Z,100996.02
2019-02-18T19:21:01.187Z,100995.53
2019-02-18T19:23:36.157Z,100997.38
2019-02-18T19:26:05.126Z,100994.16
2019-02-18T19:28:34.624Z,101001.89
2019-02-18T19:31:06.411Z,100992.93
2019-02-18T19:33:36.076Z,100992.56
2019-02-18T19:36:05.213Z,100995.88
2019-02-18T19:38:39.819Z,100991.97
2019-02-18T19:41:08.913Z,100994.62
2019-02-18T19:43:50.362Z,100991.27
2019-02-18T19:46:13.373Z,100993.45
2019-02-18T19:48:49.337Z,100999.68
2019-02-18T19:51:28.336Z,100999.91
2019-02-18T19:53:57.454Z,100998.81
2019-02-18T19:56:26.527Z,100996.98
2019-02-18T19:58:58.401Z,100991.70
2019-02-18T20:01:27.394Z,100996.61
2019-02-18T20:03:56.680Z,100994.47
2019-02-18T20:06:28.325Z,100994.47
2019-02-18T20:09:00.216Z,100991.05
2019-02-18T20:11:29.468Z,100993.98
2019-02-18T20:14:07.246Z,100990.30
2019-02-18T20:16:38.016Z,100991.66
2019-02-18T20:19:09.695Z,100995.32
2019-02-18T20:21:43.311Z,100998.51
2019-02-18T20:24:13.885Z,101003.85
2019-02-18T20:27:00.616Z,101005.69
2019-02-18T20:29:29.719Z,101005.30
2019-02-18T20:32:01.442Z,101005.71
2019-02-18T20:34:28.787Z,101004.20
2019-02-18T20:36:58.171Z,101012.76
2019-02-18T20:39:31.758Z,101009.31
2019-02-18T20:42:01.005Z,101008.53
2019-02-18T20:44:38.420Z,101003.26
2019-02-18T20:47:07.428Z,101005.02
2019-02-18T20:49:40.635Z,101006.84
2019-02-18T20:52:16.104Z,101003.13
2019-02-18T20:54:45.472Z,101004.36
2019-02-18T20:57:16.691Z,101003.50
2019-02-18T20:59:46.111Z,101002.34
2019-02-18T21:02:24.128Z,100997.13
2019-02-18T21:04:51.015Z,100996.34
2019-02-18T21:07:42.389Z,101001.91
2019-02-18T21:10:30.214Z,101005.07
2019-02-18T21:13:10.198Z,101003.31
2019-02-18T21:15:47.086Z,100991.22
2019-02-18T21:18:23.717Z,100993.43
2019-02-18T21:21:22.920Z,100998.95
2019-02-18T21:23:56.822Z,101010.00
2019-02-18T21:26:44.311Z,101008.80
2019-02-18T21:29:13.615Z,100998.02
2019-02-18T21:31:52.296Z,100996.34
2019-02-18T21:35:03.473Z,100996.61
2019-02-18T21:37:56.626Z,100996.08
2019-02-18T21:40:30.100Z,100999.75
2019-02-18T21:43:07.284Z,100994.13
2019-02-18T21:45:52.154Z,100995.66
2019-02-18T21:48:27.849Z,100987.89
2019-02-18T21:51:06.061Z,100989.62
2019-02-18T21:54:32.822Z,100994.52
2019-02-18T21:56:40.503Z,100988.25
2019-02-18T21:59:14.078Z,100987.18
2019-02-18T22:04:50.484Z,100986.59
2019-02-18T22:07:26.573Z,100988.81
2019-02-18T22:10:22.944Z,100983.52
2019-02-18T22:13:07.498Z,100989.28
2019-02-18T22:15:36.644Z,100979.95
2019-02-18T22:18:14.500Z,100991.07
2019-02-18T22:20:51.987Z,100995.59
2019-02-18T22:23:40.050Z,100991.40
2019-02-18T22:26:34.315Z,100992.52
2019-02-18T22:29:19.160Z,100994.08
2019-02-18T22:31:49.874Z,100996.03
2019-02-18T22:34:23.382Z,100989.39
2019-02-18T22:37:00.862Z,100986.86
2019-02-18T22:39:49.573Z,100987.13
2019-02-18T22:42:23.942Z,100988.04
2019-02-18T22:45:00.363Z,100987.94
2019-02-18T22:47:35.266Z,100993.81
2019-02-18T22:50:10.180Z,100979.95
2019-02-18T22:52:47.721Z,100982.32
2019-02-18T22:55:25.240Z,100983.30
2019-02-18T22:58:12.011Z,100984.27
2019-02-18T23:01:00.384Z,100992.14
2019-02-18T23:03:35.954Z,100991.92
2019-02-18T23:06:14.091Z,100989.75
2019-02-18T23:08:52.662Z,100992.45
2019-02-18T23:11:26.192Z,100989.15
2019-02-18T23:13:58.230Z,100997.13
2019-02-18T23:16:43.697Z,100995.66
2019-02-18T23:19:14.235Z,101002.67
2019-02-18T23:22:00.326Z,101008.67
2019-02-18T23:24:36.718Z,101015.39
2019-02-18T23:27:14.255Z,101014.78
2019-02-18T23:29:43.528Z,101024.62
2019-02-18T23:32:17.531Z,101024.26
2019-02-18T23:34:48.960Z,101032.98
2019-02-18T23:37:20.614Z,101022.66
2019-02-18T23:39:57.139Z,101028.93
2019-02-18T23:42:36.099Z,101036.66
2019-02-18T23:45:05.397Z,101036.49
2019-02-18T23:47:37.186Z,101040.31
2019-02-18T23:50:22.866Z,101036.87
2019-02-18T23:52:52.594Z,101037.00
2019-02-18T23:55:39.984Z,101037.36
2019-02-18T23:58:55.238Z,101043.15
